Time;durP1;ratioP1;P1;durP2;ratioP2;P2;SDS_P1;SDS_P2;PMS_P1;PMS_P2;Temp;Humidity;BMP_temperature;BMP_pressure;BME280_temperature;BME280_humidity;BME280_pressure;Samples;Min_cycle;Max_cycle;Signal;HPM_P1;HPM_P2
2021/06/01 00:00:35;;;;;;;7.38;6.47;;;16.40;67.00;;;;;;5040890;28;20036;-77
2021/06/01 00:03:01;;;;;;;8.93;6.05;;;16.40;66.70;;;;;;5005926;28;20025;-76
2021/06/01 00:05:27;;;;;;;8.63;7.30;;;16.30;66.80;;;;;;5039690;28;20108;-77
2021/06/01 00:07:52;;;;;;;8.55;6.72;;;16.20;67.80;;;;;;5023641;28;20032;-76
2021/06/01 00:10:18;;;;;;;8.80;6.50;;;16.10;68.00;;;;;;5056932;28;20025;-78
2021/06/01 00:12:43;;;;;;;8.73;6.55;;;16.00;68.10;;;;;;5053738;28;20029;-77
2021/06/01 00:15:10;;;;;;;9.02;6.60;;;15.90;67.50;;;;;;5018744;28;20547;-76
2021/06/01 00:17:36;;;;;;;9.95;6.20;;;15.80;67.40;;;;;;5031590;28;20029;-77
2021/06/01 00:20:05;;;;;;;8.77;6.30;;;15.80;67.60;;;;;;5040406;28;20500;-77
2021/06/01 00:22:31;;;;;;;8.43;6.07;;;15.70;68.50;;;;;;5043720;28;20087;-75
2021/06/01 00:24:56;;;;;;;8.02;5.75;;;15.70;68.30;;;;;;5036604;28;20036;-76
2021/06/01 00:27:22;;;;;;;6.13;5.45;;;15.60;67.40;;;;;;5040351;28;20051;-76
2021/06/01 00:29:48;;;;;;;8.35;5.53;;;15.60;67.20;;;;;;5041323;28;20033;-77
2021/06/01 00:32:13;;;;;;;8.45;5.53;;;15.60;67.20;;;;;;5037371;28;20116;-76
2021/06/01 00:34:39;;;;;;;8.70;6.00;;;15.70;67.20;;;;;;5038895;28;20029;-76
2021/06/01 00:37:05;;;;;;;6.80;5.63;;;15.90;67.20;;;;;;5051869;28;20029;-76
2021/06/01 00:39:30;;;;;;;7.43;5.45;;;16.00;67.40;;;;;;5025268;28;20404;-77
2021/06/01 00:41:56;;;;;;;10.75;6.60;;;16.00;67.80;;;;;;5036150;28;20029;-76
2021/06/01 00:44:21;;;;;;;6.88;6.00;;;16.10;68.30;;;;;;5029798;28;20568;-77
2021/06/01 00:46:47;;;;;;;8.88;6.55;;;16.10;69.20;;;;;;5024205;28;20037;-77
2021/06/01 00:49:12;;;;;;;8.45;6.43;;;16.10;70.00;;;;;;5036607;28;20025;-77
2021/06/01 00:51:38;;;;;;;7.85;6.10;;;16.00;70.00;;;;;;5012966;28;20492;-76
2021/06/01 00:54:04;;;;;;;8.00;5.85;;;16.00;68.90;;;;;;5050878;28;20033;-76
2021/06/01 00:56:31;;;;;;;6.80;5.72;;;15.80;68.80;;;;;;5035962;28;20033;-76
2021/06/01 00:58:57;;;;;;;7.40;6.18;;;15.70;69.40;;;;;;5004419;28;20068;-76
2021/06/01 01:01:23;;;;;;;9.68;5.63;;;15.60;69.10;;;;;;5054964;28;20052;-76
2021/06/01 01:03:50;;;;;;;7.15;6.15;;;15.50;69.10;;;;;;5055442;28;20033;-77
2021/06/01 01:06:31;;;;;;;7.80;5.65;;;15.40;68.80;;;;;;5023108;28;20090;-77
2021/06/01 01:09:00;;;;;;;6.43;5.00;;;15.40;68.20;;;;;;5048271;28;20063;-76
2021/06/01 01:11:34;;;;;;;6.80;5.30;;;15.40;68.30;;;;;;5037479;28;20128;-76
2021/06/01 01:14:08;;;;;;;6.95;5.38;;;15.50;67.70;;;;;;5036640;28;20029;-76
2021/06/01 01:16:35;;;;;;;9.20;5.55;;;15.50;67.70;;;;;;5037219;28;20182;-77
2021/06/01 01:19:16;;;;;;;6.57;4.90;;;15.50;67.70;;;;;;5047129;28;20040;-76
2021/06/01 01:21:52;;;;;;;6.10;5.05;;;15.30;68.00;;;;;;5052340;28;20033;-77
2021/06/01 01:24:43;;;;;;;7.45;5.40;;;15.40;67.80;;;;;;5048092;28;20041;-76
2021/06/01 01:27:36;;;;;;;6.43;5.20;;;15.30;67.80;;;;;;5042370;28;20032;-77
2021/06/01 01:30:06;;;;;;;7.55;5.45;;;15.30;68.70;;;;;;5038191;28;20041;-77
2021/06/01 01:32:40;;;;;;;7.30;5.45;;;15.20;70.20;;;;;;5045578;28;20036;-77
2021/06/01 01:35:08;;;;;;;7.65;5.43;;;15.20;71.00;;;;;;5051163;28;20036;-77
2021/06/01 01:37:37;;;;;;;6.95;5.88;;;15.20;72.20;;;;;;5044948;28;20045;-77
2021/06/01 01:40:07;;;;;;;8.27;5.60;;;15.20;72.70;;;;;;5034972;28;20041;-76
2021/06/01 01:42:42;;;;;;;6.75;5.32;;;15.10;73.30;;;;;;5038350;28;20110;-77
2021/06/01 01:45:19;;;;;;;6.88;6.13;;;15.00;73.00;;;;;;5059175;28;20029;-77
2021/06/01 01:50:40;;;;;;;7.15;5.55;;;14.80;71.00;;;;;;5040840;28;20419;-77
2021/06/01 01:53:07;;;;;;;8.75;6.63;;;14.70;71.20;;;;;;5036305;28;20037;-77
2021/06/01 01:55:33;;;;;;;7.40;5.82;;;14.70;71.40;;;;;;5014928;28;20507;-77
2021/06/01 01:57:59;;;;;;;6.00;5.40;;;14.60;71.70;;;;;;5014014;28;20037;-76
2021/06/01 02:00:25;;;;;;;7.07;6.25;;;14.60;71.70;;;;;;5031038;28;20032;-77
2021/06/01 02:02:52;;;;;;;6.32;5.43;;;14.60;72.30;;;;;;5053601;28;20388;-77
2021/06/01 02:05:20;;;;;;;9.48;6.30;;;14.50;72.30;;;;;;5030644;28;20077;-76
2021/06/01 02:07:46;;;;;;;6.55;5.85;;;14.50;71.80;;;;;;5037616;28;20037;-76
2021/06/01 02:10:12;;;;;;;7.07;6.00;;;14.40;71.60;;;;;;5043158;28;20115;-76
2021/06/01 02:12:38;;;;;;;7.57;5.53;;;14.40;71.60;;;;;;5047503;28;20060;-76
2021/06/01 02:15:06;;;;;;;8.15;5.82;;;14.50;72.30;;;;;;5023792;28;20096;-76
2021/06/01 02:17:31;;;;;;;8.10;5.57;;;14.50;73.20;;;;;;5026057;28;20036;-77
2021/06/01 02:19:57;;;;;;;7.28;5.70;;;14.50;73.60;;;;;;5029407;28;20061;-77
2021/06/01 02:25:33;;;;;;;8.32;6.80;;;14.40;75.70;;;;;;5044122;28;20036;-77
2021/06/01 02:28:07;;;;;;;8.63;5.82;;;14.40;76.10;;;;;;5019741;28;20042;-78
2021/06/01 02:30:47;;;;;;;7.20;5.45;;;14.30;75.70;;;;;;5045073;28;20022;-77
2021/06/01 02:33:13;;;;;;;6.82;5.93;;;14.30;75.50;;;;;;5053287;28;20065;-77
2021/06/01 02:35:40;;;;;;;9.93;6.40;;;14.30;75.70;;;;;;5020280;28;20048;-76
2021/06/01 02:38:09;;;;;;;6.85;5.78;;;14.30;75.60;;;;;;5003816;28;20128;-76
2021/06/01 02:40:37;;;;;;;7.45;5.90;;;14.30;76.10;;;;;;5017041;28;20104;-76
2021/06/01 02:43:09;;;;;;;9.80;6.63;;;14.30;76.30;;;;;;5016580;28;20037;-78
2021/06/01 02:45:37;;;;;;;6.07;5.35;;;14.30;77.20;;;;;;5003765;28;20025;-77
2021/06/01 02:48:07;;;;;;;7.28;6.03;;;14.20;77.70;;;;;;5053623;28;20025;-78
2021/06/01 02:50:34;;;;;;;17.67;11.93;;;14.10;77.40;;;;;;5017206;28;20382;-77
2021/06/01 02:53:02;;;;;;;22.42;14.25;;;14.10;77.50;;;;;;5009948;28;20090;-76
2021/06/01 02:55:28;;;;;;;12.00;8.60;;;14.10;77.60;;;;;;5031096;28;20082;-76
2021/06/01 02:57:54;;;;;;;10.07;7.03;;;14.10;77.60;;;;;;5026384;28;20032;-77
2021/06/01 03:00:22;;;;;;;9.02;6.55;;;14.10;77.50;;;;;;5046456;28;20056;-76
2021/06/01 03:02:48;;;;;;;7.85;6.57;;;14.10;77.70;;;;;;5037238;28;20037;-76
2021/06/01 03:05:15;;;;;;;7.90;6.30;;;14.10;78.20;;;;;;5019860;28;20086;-76
2021/06/01 03:07:41;;;;;;;9.38;6.55;;;14.10;78.60;;;;;;5032302;28;20036;-76
2021/06/01 03:10:11;;;;;;;11.27;6.97;;;14.10;78.50;;;;;;5009006;28;20086;-76
2021/06/01 03:15:12;;;;;;;10.55;7.07;;;14.00;79.50;;;;;;5054000;28;20056;-77
2021/06/01 03:17:38;;;;;;;9.57;7.05;;;14.00;79.60;;;;;;5052371;28;20047;-77
2021/06/01 03:20:05;;;;;;;6.75;5.72;;;14.00;79.60;;;;;;5020490;28;20033;-77
2021/06/01 03:22:31;;;;;;;9.68;6.50;;;14.10;79.70;;;;;;5036562;28;20045;-77
2021/06/01 03:24:57;;;;;;;7.43;6.07;;;14.10;79.70;;;;;;5054470;28;20029;-75
2021/06/01 03:27:22;;;;;;;6.70;5.60;;;14.00;79.60;;;;;;5039988;28;20101;-75
2021/06/01 03:29:48;;;;;;;8.43;6.30;;;14.10;79.50;;;;;;5023222;28;20040;-77
2021/06/01 03:32:13;;;;;;;7.35;6.32;;;14.10;78.40;;;;;;5024001;28;20041;-77
2021/06/01 03:34:39;;;;;;;7.93;6.38;;;14.10;78.50;;;;;;5040466;28;20392;-76
2021/06/01 03:37:05;;;;;;;7.82;6.70;;;14.10;78.80;;;;;;5043696;28;20029;-76
2021/06/01 03:39:31;;;;;;;7.60;6.70;;;14.10;79.30;;;;;;5057610;28;20037;-76
2021/06/01 03:41:57;;;;;;;10.43;7.32;;;14.10;79.80;;;;;;5023895;28;20524;-76
2021/06/01 03:44:23;;;;;;;8.65;7.72;;;14.10;80.20;;;;;;5056816;28;20033;-77
2021/06/01 03:46:49;;;;;;;8.13;7.10;;;14.10;79.80;;;;;;5019955;28;20052;-77
2021/06/01 03:49:14;;;;;;;8.75;7.25;;;14.10;79.50;;;;;;5036742;28;20405;-76
2021/06/01 03:51:40;;;;;;;10.45;8.07;;;13.90;79.60;;;;;;5015563;28;20458;-75
2021/06/01 03:54:06;;;;;;;10.45;6.95;;;13.90;80.00;;;;;;5021189;28;20033;-76
2021/06/01 03:56:37;;;;;;;10.88;7.78;;;13.80;80.60;;;;;;5040069;28;20044;-76
2021/06/01 03:59:04;;;;;;;8.75;7.22;;;13.90;80.60;;;;;;5057056;28;20593;-77
2021/06/01 04:01:30;;;;;;;8.55;7.20;;;13.90;80.20;;;;;;5046144;28;20032;-77
2021/06/01 04:03:55;;;;;;;9.60;7.50;;;14.00;79.10;;;;;;5028072;28;20515;-77
2021/06/01 04:06:21;;;;;;;10.63;6.78;;;14.00;78.80;;;;;;5045576;28;20041;-75
2021/06/01 04:08:46;;;;;;;8.95;7.35;;;14.00;79.20;;;;;;5047649;28;20040;-77
2021/06/01 04:11:12;;;;;;;10.02;7.38;;;14.00;79.80;;;;;;5040396;28;20044;-77
2021/06/01 04:13:38;;;;;;;7.97;6.85;;;14.10;79.60;;;;;;5031809;28;20041;-76
2021/06/01 04:16:04;;;;;;;9.73;7.35;;;14.10;79.70;;;;;;5006619;28;20139;-77
2021/06/01 04:18:29;;;;;;;9.20;7.53;;;14.20;79.70;;;;;;5039411;28;20037;-77
2021/06/01 04:20:55;;;;;;;9.52;7.13;;;14.20;79.40;;;;;;5024742;28;20041;-76
2021/06/01 04:23:20;;;;;;;12.32;7.22;;;14.20;79.00;;;;;;5023408;28;20463;-77
2021/06/01 04:25:46;;;;;;;7.50;6.80;;;14.30;79.00;;;;;;5006959;28;20045;-77
2021/06/01 04:28:11;;;;;;;9.43;7.70;;;14.30;78.90;;;;;;5007522;28;20033;-75
2021/06/01 04:30:38;;;;;;;7.63;6.90;;;14.30;78.70;;;;;;5049735;28;20043;-77
2021/06/01 04:33:03;;;;;;;9.93;6.93;;;14.40;78.40;;;;;;5050654;28;20534;-77
2021/06/01 04:35:29;;;;;;;7.85;6.72;;;14.50;77.10;;;;;;5045824;28;20036;-76
2021/06/01 04:37:55;;;;;;;8.18;6.40;;;14.50;77.00;;;;;;5055684;28;20021;-77
2021/06/01 04:40:21;;;;;;;8.00;6.82;;;14.50;77.00;;;;;;5038750;28;20047;-76
2021/06/01 04:42:46;;;;;;;8.10;6.35;;;14.50;76.90;;;;;;5048134;28;20033;-77
2021/06/01 04:45:14;;;;;;;23.08;18.10;;;14.40;77.60;;;;;;5041992;28;20032;-77
2021/06/01 04:47:41;;;;;;;9.00;7.70;;;14.50;76.90;;;;;;5031533;28;20044;-77
2021/06/01 04:50:07;;;;;;;7.13;6.38;;;14.60;76.20;;;;;;5026152;28;20048;-77
2021/06/01 04:52:32;;;;;;;10.02;6.47;;;14.50;75.60;;;;;;5029145;28;20385;-76
2021/06/01 04:54:58;;;;;;;8.52;6.20;;;14.50;75.30;;;;;;5020416;28;20033;-76
2021/06/01 04:57:24;;;;;;;12.40;6.40;;;14.30;76.00;;;;;;5008017;28;20568;-77
2021/06/01 04:59:49;;;;;;;7.20;5.95;;;14.30;76.10;;;;;;5014197;28;20419;-78
2021/06/01 05:02:15;;;;;;;9.82;6.70;;;14.20;76.10;;;;;;5003746;28;20041;-77
2021/06/01 05:04:41;;;;;;;9.13;6.13;;;14.30;75.80;;;;;;5019815;28;20041;-77
2021/06/01 05:07:06;;;;;;;8.27;6.47;;;14.30;75.20;;;;;;5049152;28;20029;-77
2021/06/01 05:09:32;;;;;;;8.63;6.80;;;14.30;75.20;;;;;;5038866;28;20033;-77
2021/06/01 05:11:57;;;;;;;12.48;6.57;;;14.40;75.20;;;;;;5022787;28;20040;-77
2021/06/01 05:14:23;;;;;;;7.43;6.35;;;14.50;74.60;;;;;;5053343;28;20524;-76
2021/06/01 05:16:49;;;;;;;15.07;7.20;;;14.60;74.80;;;;;;5026697;28;20041;-79
2021/06/01 05:19:15;;;;;;;9.82;7.20;;;14.80;74.70;;;;;;5043889;28;20040;-77
2021/06/01 05:21:40;;;;;;;11.52;7.00;;;14.60;75.20;;;;;;5020226;28;20041;-77
2021/06/01 05:24:08;;;;;;;10.57;6.30;;;14.70;75.10;;;;;;5028266;28;20040;-78
2021/06/01 05:26:36;;;;;;;9.48;6.20;;;14.80;74.60;;;;;;5039235;28;20033;-77
2021/06/01 05:29:04;;;;;;;11.77;6.32;;;15.00;73.80;;;;;;5043331;28;20033;-77
2021/06/01 05:31:44;;;;;;;9.27;6.47;;;15.10;73.50;;;;;;5003348;28;20042;-78
2021/06/01 05:34:11;;;;;;;7.13;5.97;;;14.90;74.20;;;;;;5004992;28;20284;-77
2021/06/01 05:36:37;;;;;;;9.88;5.95;;;15.10;73.90;;;;;;5052823;28;20092;-76
2021/06/01 05:39:05;;;;;;;7.07;5.75;;;15.20;73.00;;;;;;5002344;28;20041;-77
2021/06/01 05:41:31;;;;;;;7.93;6.05;;;15.20;72.90;;;;;;5011363;28;20041;-78
2021/06/01 05:43:56;;;;;;;8.27;5.97;;;15.40;72.30;;;;;;5051722;28;20048;-78
2021/06/01 05:46:22;;;;;;;9.57;5.40;;;15.50;71.70;;;;;;5058926;28;20041;-78
2021/06/01 05:48:48;;;;;;;9.38;7.45;;;15.50;71.60;;;;;;5034670;28;20033;-78
2021/06/01 05:51:14;;;;;;;7.65;6.80;;;15.50;71.30;;;;;;5018147;28;20397;-78
2021/06/01 05:53:39;;;;;;;7.07;6.00;;;15.70;71.20;;;;;;5025268;28;20403;-78
2021/06/01 05:56:05;;;;;;;10.40;5.57;;;15.90;70.80;;;;;;5017753;28;20033;-77
2021/06/01 05:58:31;;;;;;;7.50;5.63;;;16.00;70.70;;;;;;5032739;28;20072;-77
2021/06/01 06:00:56;;;;;;;9.27;5.75;;;16.10;70.80;;;;;;5005555;28;20064;-77
2021/06/01 06:03:22;;;;;;;9.07;6.40;;;16.20;70.60;;;;;;5044451;28;20069;-78
2021/06/01 06:05:48;;;;;;;10.50;6.68;;;16.20;70.60;;;;;;5042118;28;20059;-77
2021/06/01 06:08:19;;;;;;;8.98;6.25;;;15.90;71.70;;;;;;5023787;28;20037;-78
2021/06/01 06:10:47;;;;;;;7.13;6.20;;;16.10;71.40;;;;;;5056629;28;20035;-77
2021/06/01 06:13:13;;;;;;;9.10;5.80;;;16.30;70.70;;;;;;5022938;28;20025;-78
2021/06/01 06:15:39;;;;;;;10.38;7.10;;;16.50;70.40;;;;;;5024330;28;20039;-77
2021/06/01 06:18:05;;;;;;;9.98;6.57;;;16.40;70.40;;;;;;5037796;28;20029;-78
2021/06/01 06:20:31;;;;;;;9.35;6.90;;;16.50;70.10;;;;;;5040201;28;20036;-77
2021/06/01 06:22:58;;;;;;;8.32;6.40;;;16.70;70.10;;;;;;5042026;28;20029;-76
2021/06/01 06:25:24;;;;;;;9.15;5.72;;;16.70;70.80;;;;;;5051101;28;20033;-78
2021/06/01 06:27:50;;;;;;;9.60;6.28;;;16.80;70.20;;;;;;5023484;28;20386;-78
2021/06/01 06:30:16;;;;;;;7.63;5.95;;;16.80;70.50;;;;;;5039298;28;20056;-78
2021/06/01 06:32:42;;;;;;;8.27;6.18;;;17.10;70.60;;;;;;5050913;28;20021;-78
2021/06/01 06:35:09;;;;;;;8.43;6.40;;;17.20;70.50;;;;;;5055101;28;20025;-77
2021/06/01 06:37:35;;;;;;;7.70;6.22;;;17.40;69.80;;;;;;5050239;28;20029;-77
2021/06/01 06:40:03;;;;;;;10.07;5.97;;;17.40;69.00;;;;;;5038226;28;20508;-77
2021/06/01 06:42:29;;;;;;;8.43;6.05;;;17.50;69.10;;;;;;5018620;28;20048;-77
2021/06/01 06:44:54;;;;;;;6.90;5.40;;;17.50;69.80;;;;;;5037169;28;20029;-77
2021/06/01 06:47:25;;;;;;;8.73;5.78;;;17.50;69.00;;;;;;5010204;28;20045;-78
2021/06/01 06:49:54;;;;;;;11.30;6.97;;;17.60;69.10;;;;;;5030661;28;20464;-77
2021/06/01 06:52:19;;;;;;;13.93;7.50;;;17.70;68.90;;;;;;5049239;28;20104;-77
2021/06/01 06:54:45;;;;;;;17.45;12.85;;;17.80;68.60;;;;;;5058166;28;20055;-78
2021/06/01 06:57:11;;;;;;;10.75;6.15;;;17.90;68.50;;;;;;5041416;28;20128;-77
2021/06/01 06:59:36;;;;;;;7.47;5.63;;;18.10;67.60;;;;;;5025363;28;20036;-77
2021/06/01 07:02:02;;;;;;;9.02;5.55;;;18.10;67.10;;;;;;5055944;28;20553;-77
2021/06/01 07:04:28;;;;;;;11.23;6.05;;;18.20;67.30;;;;;;5039948;28;20450;-77
2021/06/01 07:06:56;;;;;;;7.13;5.53;;;18.40;67.00;;;;;;5047672;28;20128;-78
2021/06/01 07:09:22;;;;;;;6.20;5.57;;;18.50;66.80;;;;;;5056901;28;20071;-77
2021/06/01 07:11:47;;;;;;;8.90;5.82;;;18.50;66.30;;;;;;5035212;28;20059;-79
2021/06/01 07:14:16;;;;;;;7.53;5.63;;;18.60;66.40;;;;;;5022406;28;20045;-77
2021/06/01 07:16:42;;;;;;;11.82;6.15;;;18.70;66.10;;;;;;5039942;28;20139;-76
2021/06/01 07:19:08;;;;;;;7.35;5.75;;;18.70;65.70;;;;;;5038070;28;20033;-77
2021/06/01 07:21:34;;;;;;;10.02;5.78;;;18.80;65.50;;;;;;5030242;28;20031;-77
2021/06/01 07:23:59;;;;;;;9.57;5.53;;;19.00;65.30;;;;;;5030353;28;20505;-77
2021/06/01 07:26:25;;;;;;;8.43;5.47;;;19.10;64.10;;;;;;5031302;28;20045;-77
2021/06/01 07:28:51;;;;;;;8.70;5.63;;;19.10;64.20;;;;;;5046558;28;20040;-77
2021/06/01 07:31:17;;;;;;;12.35;5.68;;;19.20;64.50;;;;;;5017923;28;20041;-76
2021/06/01 07:33:44;;;;;;;7.03;5.28;;;19.40;64.00;;;;;;5049835;28;20401;-77
2021/06/01 07:36:10;;;;;;;7.53;5.18;;;19.40;63.50;;;;;;5043948;28;20037;-76
2021/06/01 07:38:36;;;;;;;7.70;5.60;;;19.50;63.10;;;;;;5046773;28;20443;-77
2021/06/01 07:41:03;;;;;;;8.60;5.75;;;19.60;62.50;;;;;;5006733;28;20108;-77
2021/06/01 07:43:30;;;;;;;11.85;6.10;;;19.60;62.70;;;;;;5022788;28;20093;-77
2021/06/01 07:45:56;;;;;;;13.02;6.03;;;19.60;62.90;;;;;;5044483;28;20046;-77
2021/06/01 07:48:22;;;;;;;11.60;5.57;;;19.90;62.20;;;;;;5019718;28;20033;-77
2021/06/01 07:50:47;;;;;;;8.32;5.18;;;19.90;60.60;;;;;;5035942;28;20058;-79
2021/06/01 07:53:15;;;;;;;8.00;5.45;;;19.90;61.40;;;;;;5025094;28;20029;-77
2021/06/01 07:55:41;;;;;;;13.20;5.93;;;20.10;61.40;;;;;;5043650;28;20043;-77
2021/06/01 07:58:06;;;;;;;7.93;5.60;;;20.20;61.20;;;;;;5007632;28;20108;-77
2021/06/01 08:00:32;;;;;;;8.90;5.40;;;20.30;60.50;;;;;;5016661;28;20029;-77
2021/06/01 08:02:58;;;;;;;15.57;5.43;;;20.40;60.40;;;;;;5044808;28;20038;-76
2021/06/01 08:05:24;;;;;;;8.20;5.00;;;20.40;59.70;;;;;;5027618;28;20396;-77
2021/06/01 08:07:50;;;;;;;5.13;3.95;;;20.50;56.00;;;;;;5012247;28;20045;-77
2021/06/01 08:10:21;;;;;;;6.57;4.20;;;20.50;53.50;;;;;;5024095;28;20047;-78
2021/06/01 08:12:49;;;;;;;6.07;3.92;;;20.40;53.40;;;;;;5034608;28;20539;-78
2021/06/01 08:15:15;;;;;;;6.00;4.25;;;20.50;52.80;;;;;;5001574;28;20029;-78
2021/06/01 08:17:41;;;;;;;5.82;4.18;;;20.60;52.80;;;;;;5031118;28;20408;-78
2021/06/01 08:20:45;;;;;;;7.60;4.35;;;20.70;52.90;;;;;;5034310;28;20033;-78
2021/06/01 08:22:59;;;;;;;6.25;4.18;;;20.60;52.70;;;;;;5052356;28;20409;-78
2021/06/01 08:25:25;;;;;;;4.97;4.47;;;20.60;53.60;;;;;;5058288;28;20020;-76
2021/06/01 08:27:52;;;;;;;5.18;4.63;;;20.60;53.60;;;;;;5026363;28;20048;-78
2021/06/01 08:30:18;;;;;;;8.18;4.50;;;20.60;55.30;;;;;;4998844;28;20105;-77
2021/06/01 08:32:44;;;;;;;7.20;4.80;;;20.70;54.40;;;;;;5031564;28;20041;-77
2021/06/01 08:35:10;;;;;;;11.32;5.05;;;20.90;54.50;;;;;;5010730;28;20037;-77
2021/06/01 08:37:35;;;;;;;7.00;4.80;;;21.10;54.10;;;;;;5047340;28;20127;-76
2021/06/01 08:40:03;;;;;;;6.85;5.03;;;20.90;55.20;;;;;;5009522;28;20431;-77
2021/06/01 08:42:29;;;;;;;6.53;4.78;;;20.90;56.00;;;;;;4996736;28;20409;-76
2021/06/01 08:44:54;;;;;;;7.97;5.03;;;20.90;55.90;;;;;;5035350;28;20048;-77
2021/06/01 08:47:20;;;;;;;6.53;4.95;;;21.00;55.10;;;;;;5057711;28;20471;-77
2021/06/01 08:49:47;;;;;;;6.75;4.85;;;21.10;55.50;;;;;;5024044;28;20025;-76
2021/06/01 08:52:15;;;;;;;8.88;5.32;;;21.00;56.00;;;;;;5040717;28;20057;-77
2021/06/01 08:54:41;;;;;;;6.97;4.72;;;20.90;56.10;;;;;;5055914;28;20052;-79
2021/06/01 08:57:09;;;;;;;9.48;5.65;;;21.00;57.00;;;;;;5070923;28;20484;-77
2021/06/01 08:59:35;;;;;;;6.22;4.63;;;21.30;55.30;;;;;;5059766;28;20091;-76
2021/06/01 09:02:02;;;;;;;5.95;4.32;;;21.30;54.90;;;;;;5053885;28;20033;-77
2021/06/01 09:04:57;;;;;;;7.13;4.82;;;21.20;54.70;;;;;;5047993;28;20063;-77
2021/06/01 09:10:21;;;;;;;7.68;4.60;;;21.40;54.60;;;;;;5056549;28;20033;-78
2021/06/01 09:21:16;;;;;;;8.43;7.45;;;21.40;54.60;;;;;;5056016;28;20489;-78
2021/06/01 09:23:59;;;;;;;7.78;4.60;;;21.40;53.40;;;;;;5030012;28;20519;-77
2021/06/01 09:29:28;;;;;;;6.82;4.60;;;21.60;52.60;;;;;;4980344;28;20030;-78
2021/06/01 09:32:16;;;;;;;7.15;4.72;;;21.90;52.70;;;;;;5045097;28;20051;-78
2021/06/01 09:34:52;;;;;;;8.07;5.38;;;22.00;52.80;;;;;;5026174;28;20029;-78
2021/06/01 09:37:29;;;;;;;9.07;4.80;;;22.00;53.40;;;;;;5055785;28;20075;-78
2021/06/01 09:40:24;;;;;;;7.35;4.82;;;21.90;53.70;;;;;;5038755;28;20029;-77
2021/06/01 09:42:51;;;;;;;6.22;4.85;;;22.10;53.60;;;;;;5025866;28;20180;-77
2021/06/01 09:45:19;;;;;;;6.57;4.55;;;22.20;53.00;;;;;;5015771;28;20029;-78
2021/06/01 09:47:52;;;;;;;7.20;4.82;;;22.40;52.90;;;;;;5036959;28;20109;-77
2021/06/01 09:52:52;;;;;;;7.70;5.97;;;22.60;52.50;;;;;;5034698;28;20030;-78
2021/06/01 09:55:36;;;;;;;5.53;4.43;;;22.60;52.30;;;;;;5019995;28;20037;-77
2021/06/01 09:58:05;;;;;;;7.22;5.15;;;22.50;53.40;;;;;;5014742;28;20110;-78
2021/06/01 10:00:32;;;;;;;8.50;5.03;;;22.40;53.10;;;;;;5060354;28;20032;-79
2021/06/01 10:03:03;;;;;;;7.38;5.38;;;22.20;52.70;;;;;;5029031;28;20100;-79
2021/06/01 10:05:32;;;;;;;6.50;4.78;;;22.30;52.30;;;;;;5029250;28;20071;-79
2021/06/01 10:08:08;;;;;;;6.30;4.90;;;22.60;52.20;;;;;;5027546;28;20473;-78
2021/06/01 10:10:34;;;;;;;5.82;5.22;;;22.40;52.50;;;;;;5061424;28;20037;-78
2021/06/01 10:13:02;;;;;;;6.00;4.97;;;22.40;52.30;;;;;;5044146;28;20029;-78
2021/06/01 10:15:29;;;;;;;5.95;4.75;;;22.80;52.00;;;;;;5046112;28;20039;-78
2021/06/01 10:17:55;;;;;;;8.73;5.05;;;22.60;51.30;;;;;;5057240;28;20036;-79
2021/06/01 10:20:26;;;;;;;8.48;5.72;;;22.40;51.60;;;;;;5011761;28;20049;-79
2021/06/01 10:22:55;;;;;;;6.95;4.85;;;22.30;51.50;;;;;;5059811;28;20037;-79
2021/06/01 10:25:20;;;;;;;6.40;5.10;;;22.70;51.40;;;;;;5057047;28;20029;-77
2021/06/01 10:27:49;;;;;;;6.13;4.80;;;22.70;51.10;;;;;;5043114;28;20041;-80
2021/06/01 10:30:16;;;;;;;5.75;4.57;;;22.90;51.00;;;;;;5061304;28;20090;-79
2021/06/01 10:32:45;;;;;;;6.38;4.78;;;23.00;50.90;;;;;;5036271;28;20043;-77
2021/06/01 10:35:14;;;;;;;5.68;4.60;;;23.20;50.70;;;;;;5045796;28;20032;-78
2021/06/01 10:44:04;;;;;;;;;;;22.80;52.10;;;;;;5026774;28;20053;-78
2021/06/01 10:51:56;;;;;;;8.00;4.82;;;22.90;52.00;;;;;;5048989;28;20033;-77
2021/06/01 10:57:07;;;;;;;8.38;4.93;;;23.10;52.20;;;;;;5052747;28;20049;-78
2021/06/01 11:02:23;;;;;;;7.57;5.50;;;22.70;51.60;;;;;;5058576;28;20094;-78
2021/06/01 11:05:13;;;;;;;8.30;5.20;;;22.90;51.50;;;;;;5052527;28;20044;-78
2021/06/01 11:07:55;;;;;;;7.07;5.70;;;22.80;51.60;;;;;;5032787;28;20492;-78
2021/06/01 11:10:42;;;;;;;6.38;5.35;;;22.70;52.50;;;;;;5029587;28;20029;-78
2021/06/01 11:13:18;;;;;;;11.15;5.93;;;22.80;51.40;;;;;;5029178;28;20021;-77
2021/06/01 11:15:53;;;;;;;7.35;5.70;;;23.00;51.80;;;;;;5056026;28;20025;-78
2021/06/01 11:18:24;;;;;;;7.60;5.85;;;23.20;51.50;;;;;;5025500;28;20029;-78
2021/06/01 11:24:46;;;;;;;6.00;5.40;;;23.80;51.20;;;;;;5055346;28;20025;-79
2021/06/01 11:35:20;;;;;;;7.80;5.63;;;24.50;49.20;;;;;;5047083;28;20021;-80
2021/06/01 11:37:57;;;;;;;11.13;6.03;;;24.50;48.70;;;;;;5045617;28;20037;-78
2021/06/01 11:40:34;;;;;;;10.25;6.15;;;24.30;49.40;;;;;;5048054;28;20141;-79
2021/06/01 11:43:10;;;;;;;9.98;5.82;;;24.30;49.70;;;;;;5072369;28;20033;-79
2021/06/01 11:46:03;;;;;;;7.30;5.85;;;24.20;50.00;;;;;;5036103;28;20033;-78
2021/06/01 11:51:14;;;;;;;9.55;5.78;;;24.10;49.80;;;;;;5032705;28;20488;-77
2021/06/01 11:54:03;;;;;;;7.65;5.75;;;24.10;50.30;;;;;;5025403;28;20037;-79
2021/06/01 11:56:37;;;;;;;7.40;5.00;;;24.00;49.30;;;;;;5047139;28;20048;-79
2021/06/01 12:02:10;;;;;;;7.07;5.63;;;24.10;49.60;;;;;;5063296;28;20036;-78
2021/06/01 12:18:51;;;;;;;8.93;5.97;;;23.40;51.20;;;;;;5054776;28;20051;-78
2021/06/01 12:21:23;;;;;;;6.78;6.07;;;23.60;51.10;;;;;;5027858;28;20041;-79
2021/06/01 12:24:12;;;;;;;7.75;5.70;;;23.70;51.30;;;;;;5029396;28;20111;-78
2021/06/01 12:26:58;;;;;;;6.80;5.72;;;23.90;50.60;;;;;;5040767;28;20079;-79
2021/06/01 12:32:25;;;;;;;7.70;5.45;;;24.40;50.10;;;;;;5045145;28;20029;-79
2021/06/01 12:43:53;;;;;;;6.97;5.30;;;24.00;49.60;;;;;;5046859;28;20055;-78
2021/06/01 12:46:39;;;;;;;5.82;5.00;;;24.20;49.80;;;;;;5043119;28;20036;-80
2021/06/01 13:19:45;;;;;;;5.63;5.03;;;26.60;45.80;;;;;;5040292;28;20037;-78
2021/06/01 13:22:33;;;;;;;7.55;5.40;;;26.70;46.20;;;;;;5032291;28;20029;-78
2021/06/01 13:31:04;;;;;;;7.95;5.20;;;26.40;46.00;;;;;;5047296;28;20405;-80
2021/06/01 13:39:22;;;;;;;7.72;6.07;;;25.60;47.60;;;;;;5070538;28;20037;-79
2021/06/01 13:47:11;;;;;;;6.20;5.40;;;25.30;47.90;;;;;;5035751;28;20087;-78
2021/06/01 13:49:41;;;;;;;5.78;5.18;;;25.60;47.10;;;;;;5042542;28;20031;-79
2021/06/01 14:29:54;;;;;;;10.65;5.90;;;26.50;46.90;;;;;;5055742;28;20025;-78
2021/06/01 14:35:48;;;;;;;7.80;5.63;;;26.70;47.10;;;;;;5025169;28;20044;-78
2021/06/01 14:38:09;;;;;;;9.40;5.35;;;27.10;45.70;;;;;;5059492;28;20081;-79
2021/06/01 15:08:38;;;;;;;7.43;5.50;;;28.10;45.10;;;;;;5064490;28;20055;-77
2021/06/01 15:11:11;;;;;;;6.50;5.63;;;27.70;44.60;;;;;;5063888;28;20029;-78
2021/06/01 15:33:00;;;;;;;7.03;5.93;;;27.30;45.50;;;;;;5020178;28;20041;-78
2021/06/01 15:41:16;;;;;;;8.18;5.90;;;27.30;45.00;;;;;;5056295;28;20033;-77
2021/06/01 16:21:23;;;;;;;6.45;5.85;;;26.80;44.30;;;;;;5060061;28;20033;-77
2021/06/01 16:41:53;;;;;;;9.00;6.80;;;26.20;45.40;;;;;;5045933;28;20034;-77
2021/06/01 17:04:00;;;;;;;;;;;30.80;40.00;;;;;;5060121;28;20112;-80
2021/06/01 17:06:35;;;;;;;8.73;6.82;;;30.50;40.60;;;;;;5027952;28;20280;-76
2021/06/01 17:11:43;;;;;;;7.35;6.65;;;28.50;43.40;;;;;;5026451;28;20033;-77
2021/06/01 17:14:11;;;;;;;10.07;7.10;;;28.00;44.30;;;;;;5029769;28;20037;-79
2021/06/01 17:16:50;;;;;;;9.23;7.20;;;27.80;44.90;;;;;;5051169;28;20029;-77
2021/06/01 17:34:57;;;;;;;7.85;6.45;;;29.90;43.00;;;;;;5014614;28;20049;-80
2021/06/01 17:37:23;;;;;;;8.40;7.22;;;30.40;42.20;;;;;;5039691;28;20063;-79
2021/06/01 17:39:49;;;;;;;11.65;7.75;;;29.80;42.40;;;;;;5021384;28;20036;-79
2021/06/01 17:42:17;;;;;;;8.57;6.88;;;28.90;44.00;;;;;;5040745;28;20032;-79
2021/06/01 17:44:47;;;;;;;10.98;8.20;;;28.10;44.40;;;;;;5013331;28;20048;-77
2021/06/01 17:47:21;;;;;;;8.45;6.97;;;27.30;45.50;;;;;;5028922;28;20512;-79
2021/06/01 17:49:49;;;;;;;10.52;8.23;;;26.70;46.50;;;;;;5042589;28;20048;-79
2021/06/01 17:52:25;;;;;;;12.07;7.22;;;26.30;47.10;;;;;;5009815;28;20053;-79
2021/06/01 17:54:52;;;;;;;14.75;11.60;;;25.90;47.90;;;;;;5042218;28;20493;-78
2021/06/01 17:57:20;;;;;;;11.57;9.27;;;25.70;48.40;;;;;;5042109;28;20025;-79
2021/06/01 17:59:47;;;;;;;8.25;7.45;;;25.60;48.50;;;;;;5050922;28;20040;-77
2021/06/01 18:02:14;;;;;;;9.52;7.40;;;25.40;48.60;;;;;;5042097;28;20089;-79
2021/06/01 18:04:43;;;;;;;8.07;5.93;;;25.20;48.70;;;;;;5028495;28;20033;-78
2021/06/01 18:07:14;;;;;;;6.65;5.95;;;25.00;47.40;;;;;;5022886;28;20037;-79
2021/06/01 19:24:06;;;;;;;11.48;9.65;;;23.40;51.80;;;;;;5061124;28;20037;-77
2021/06/01 19:43:18;;;;;;;20.77;15.52;;;23.30;51.80;;;;;;5038553;28;20100;-79
2021/06/01 19:51:00;;;;;;;14.13;11.98;;;23.20;52.00;;;;;;5058887;28;20037;-78